createdAt,value
2016-05-05T00:00:19.976Z,0
2016-05-05T00:01:19.948Z,0
2016-05-05T00:02:19.810Z,0
2016-05-05T00:03:19.937Z,0
2016-05-05T00:04:19.612Z,0
2016-05-05T00:05:19.911Z,0
2016-05-05T00:06:19.570Z,0
2016-05-05T00:07:19.870Z,0
2016-05-05T00:08:19.544Z,0
2016-05-05T00:09:19.720Z,0
2016-05-05T00:10:19.675Z,0
2016-05-05T00:11:19.663Z,0
2016-05-05T00:12:19.805Z,0
2016-05-05T00:13:19.808Z,0
2016-05-05T00:14:19.608Z,0
2016-05-05T00:15:19.610Z,0
2016-05-05T00:16:19.738Z,0
2016-05-05T00:17:19.724Z,0
2016-05-05T00:18:19.713Z,0
2016-05-05T00:19:19.559Z,0
2016-05-05T00:20:19.530Z,0
2016-05-05T00:21:19.533Z,0
2016-05-05T00:22:19.645Z,0
2016-05-05T00:23:19.648Z,0
2016-05-05T00:24:19.729Z,0
2016-05-05T00:25:19.325Z,0
2016-05-05T00:26:19.593Z,0
2016-05-05T00:27:19.581Z,0
2016-05-05T00:28:19.567Z,0
2016-05-05T00:29:19.554Z,0
2016-05-05T00:30:19.541Z,0
2016-05-05T00:31:19.217Z,0
2016-05-05T00:32:19.515Z,0
2016-05-05T00:33:19.502Z,0
2016-05-05T00:34:19.490Z,0
2016-05-05T00:35:19.461Z,0
2016-05-05T00:36:19.480Z,0
2016-05-05T00:37:19.451Z,0
2016-05-05T00:38:19.422Z,0
2016-05-05T00:39:19.331Z,0
2016-05-05T00:40:19.255Z,0
2016-05-05T00:41:19.399Z,0
2016-05-05T00:42:19.214Z,0
2016-05-05T00:43:19.358Z,0
2016-05-05T00:44:19.188Z,0
2016-05-05T00:45:19.191Z,0
2016-05-05T00:46:19.334Z,0
2016-05-05T00:47:19.291Z,0
2016-05-05T00:48:19.137Z,0
2016-05-05T00:49:19.108Z,0
2016-05-05T00:50:19.110Z,0
2016-05-05T00:51:19.083Z,0
2016-05-05T00:52:19.210Z,0
2016-05-05T00:53:18.901Z,0
2016-05-05T00:54:19.043Z,0
2016-05-05T00:55:19.187Z,0
2016-05-05T00:56:19.190Z,0
2016-05-05T00:57:19.005Z,0
2016-05-05T00:58:19.133Z,0
2016-05-05T00:59:18.823Z,0
2016-05-05T01:00:19.090Z,0
2016-05-05T01:01:19.078Z,0
2016-05-05T01:02:18.940Z,0
2016-05-05T01:03:19.067Z,0
2016-05-05T01:04:18.898Z,0
2016-05-05T01:05:18.886Z,0
2016-05-05T01:06:19.029Z,0
2016-05-05T01:07:18.844Z,0
2016-05-05T01:08:19.003Z,0
2016-05-05T01:09:18.989Z,0
2016-05-05T01:10:18.977Z,0
2016-05-05T01:11:18.949Z,0
2016-05-05T01:12:18.935Z,0
2016-05-05T01:13:18.922Z,0
2016-05-05T01:14:18.910Z,0
2016-05-05T01:15:18.913Z,0
2016-05-05T01:16:18.884Z,0
2016-05-05T01:17:18.855Z,0
2016-05-05T01:18:18.561Z,0
2016-05-05T01:19:18.845Z,0
2016-05-05T01:20:18.504Z,0
2016-05-05T01:21:18.804Z,0
2016-05-05T01:22:18.791Z,0
2016-05-05T01:23:18.606Z,0
2016-05-05T01:24:19.140Z,0
2016-05-05T01:25:18.596Z,0
2016-05-05T01:26:18.583Z,0
2016-05-05T01:27:18.710Z,0
2016-05-05T01:28:18.682Z,0
2016-05-05T01:29:18.512Z,0
2016-05-05T01:30:18.359Z,0
2016-05-05T01:31:18.503Z,0
2016-05-05T01:32:18.646Z,0
2016-05-05T01:33:18.304Z,0
2016-05-05T01:34:18.464Z,0
2016-05-05T01:35:18.451Z,0
2016-05-05T01:36:18.579Z,0
2016-05-05T01:37:18.565Z,0
2016-05-05T01:38:18.568Z,0
2016-05-05T01:39:19.680Z,0
2016-05-05T01:40:18.527Z,0
2016-05-05T01:41:18.514Z,0
2016-05-05T01:42:18.501Z,0
2016-05-05T01:43:18.488Z,0
2016-05-05T01:44:18.178Z,0
2016-05-05T01:45:18.322Z,0
2016-05-05T01:46:18.433Z,0
2016-05-05T01:47:18.420Z,0
2016-05-05T01:48:18.391Z,0
2016-05-05T01:49:18.394Z,0
2016-05-05T01:50:18.382Z,0
2016-05-05T01:51:18.353Z,0
2016-05-05T01:52:18.361Z,0
2016-05-05T01:53:17.937Z,0
2016-05-05T01:54:18.030Z,0
2016-05-05T01:55:18.122Z,0
2016-05-05T01:56:18.495Z,0
2016-05-05T01:57:18.339Z,0
2016-05-05T01:58:18.482Z,0
2016-05-05T01:59:18.329Z,0
2016-05-05T02:00:18.175Z,0
2016-05-05T02:01:18.506Z,0
2016-05-05T02:02:18.363Z,0
2016-05-05T02:03:18.481Z,0
2016-05-05T02:04:18.191Z,0
2016-05-05T02:05:17.998Z,0
2016-05-05T02:06:18.459Z,0
2016-05-05T02:07:18.294Z,0
2016-05-05T02:08:18.283Z,0
2016-05-05T02:09:18.569Z,0
2016-05-05T02:10:18.276Z,0
2016-05-05T02:11:18.390Z,0
2016-05-05T02:12:18.223Z,0
2016-05-05T02:13:18.367Z,0
2016-05-05T02:14:18.198Z,0
2016-05-05T02:15:18.343Z,0
2016-05-05T02:16:18.189Z,0
2016-05-05T02:17:18.318Z,0
2016-05-05T02:18:18.149Z,0
2016-05-05T02:19:18.121Z,0
2016-05-05T02:20:18.280Z,0
2016-05-05T02:21:18.111Z,0
2016-05-05T02:22:18.240Z,0
2016-05-05T02:23:17.775Z,0
2016-05-05T02:24:17.918Z,0
2016-05-05T02:25:18.046Z,0
2016-05-05T02:26:18.189Z,0
2016-05-05T02:27:18.004Z,0
2016-05-05T02:28:18.148Z,0
2016-05-05T02:29:18.166Z,0
2016-05-05T02:30:18.123Z,0
2016-05-05T02:31:18.125Z,0
2016-05-05T02:32:18.112Z,0
2016-05-05T02:33:17.942Z,0
2016-05-05T02:34:18.054Z,0
2016-05-05T02:35:18.089Z,0
2016-05-05T02:36:18.028Z,0
2016-05-05T02:37:17.719Z,0
2016-05-05T02:38:18.003Z,0
2016-05-05T02:39:18.318Z,0
2016-05-05T02:40:17.993Z,0
2016-05-05T02:41:17.808Z,0
2016-05-05T02:42:17.780Z,0
2016-05-05T02:43:17.782Z,0
2016-05-05T02:44:17.926Z,0
2016-05-05T02:45:17.600Z,0
2016-05-05T02:46:17.899Z,0
2016-05-05T02:47:17.714Z,0
2016-05-05T02:48:17.546Z,0
2016-05-05T02:49:17.860Z,0
2016-05-05T02:50:17.833Z,0
2016-05-05T02:51:17.804Z,0
2016-05-05T02:52:17.650Z,0
2016-05-05T02:53:17.496Z,0
2016-05-05T02:54:17.812Z,0
2016-05-05T02:55:17.580Z,0
2016-05-05T02:56:17.614Z,0
2016-05-05T02:57:17.726Z,0
2016-05-05T02:58:17.713Z,0
2016-05-05T02:59:17.716Z,0
2016-05-05T03:00:17.704Z,0
2016-05-05T03:01:17.362Z,0
2016-05-05T03:02:17.662Z,0
2016-05-05T03:03:17.648Z,0
2016-05-05T03:04:17.635Z,0
2016-05-05T03:05:17.607Z,0
2016-05-05T03:06:17.453Z,0
2016-05-05T03:07:17.268Z,0
2016-05-05T03:08:17.428Z,0
2016-05-05T03:09:18.228Z,0
2016-05-05T03:10:17.401Z,0
2016-05-05T03:11:17.513Z,0
2016-05-05T03:12:17.500Z,0
2016-05-05T03:13:17.363Z,0
2016-05-05T03:14:17.475Z,0
2016-05-05T03:15:17.305Z,0
2016-05-05T03:16:17.464Z,0
2016-05-05T03:17:17.436Z,0
2016-05-05T03:18:17.127Z,0
2016-05-05T03:19:17.411Z,0
2016-05-05T03:20:17.382Z,0
2016-05-05T03:21:17.087Z,0
2016-05-05T03:22:17.355Z,0
2016-05-05T03:23:17.343Z,0
2016-05-05T03:24:17.064Z,0
2016-05-05T03:25:17.333Z,0
2016-05-05T03:26:17.304Z,0
2016-05-05T03:27:17.307Z,0
2016-05-05T03:28:17.278Z,0
2016-05-05T03:29:17.094Z,0
2016-05-05T03:30:17.252Z,0
2016-05-05T03:31:17.082Z,0
2016-05-05T03:32:17.210Z,0
2016-05-05T03:33:17.198Z,0
2016-05-05T03:34:17.201Z,0
2016-05-05T03:35:17.173Z,0
2016-05-05T03:36:17.159Z,0
2016-05-05T03:37:17.162Z,0
2016-05-05T03:38:16.977Z,0
2016-05-05T03:39:18.323Z,0
2016-05-05T03:40:17.107Z,0
2016-05-05T03:41:16.938Z,0
2016-05-05T03:42:16.925Z,0
2016-05-05T03:43:16.912Z,0
2016-05-05T03:44:17.040Z,0
2016-05-05T03:45:17.011Z,0
2016-05-05T03:46:17.045Z,0
2016-05-05T03:47:17.001Z,0
2016-05-05T03:48:16.989Z,0
2016-05-05T03:49:16.960Z,0
2016-05-05T03:50:16.790Z,0
2016-05-05T03:51:16.949Z,0
2016-05-05T03:52:16.780Z,0
2016-05-05T03:53:16.595Z,0
2016-05-05T03:54:16.816Z,0
2016-05-05T03:55:16.741Z,0
2016-05-05T03:56:16.697Z,0
2016-05-05T03:57:16.857Z,0
2016-05-05T03:58:16.843Z,0
2016-05-05T03:59:16.674Z,0
2016-05-05T04:00:16.817Z,0
2016-05-05T04:01:16.788Z,0
2016-05-05T04:02:16.776Z,0
2016-05-05T04:03:16.465Z,0
2016-05-05T04:04:16.750Z,0
2016-05-05T04:05:16.737Z,0
2016-05-05T04:06:16.724Z,0
2016-05-05T04:07:16.712Z,0
2016-05-05T04:08:16.542Z,0
2016-05-05T04:09:16.842Z,0
2016-05-05T04:10:16.656Z,0
2016-05-05T04:11:16.487Z,0
2016-05-05T04:12:16.631Z,0
2016-05-05T04:13:16.462Z,0
2016-05-05T04:14:16.605Z,0
2016-05-05T04:15:16.280Z,0
2016-05-05T04:16:16.579Z,0
2016-05-05T04:17:16.551Z,0
2016-05-05T04:18:16.381Z,0
2016-05-05T04:19:16.525Z,0
2016-05-05T04:20:16.527Z,0
2016-05-05T04:21:16.342Z,0
2016-05-05T04:22:16.470Z,0
2016-05-05T04:23:16.316Z,0
2016-05-05T04:24:17.679Z,0
2016-05-05T04:25:16.432Z,0
2016-05-05T04:26:16.403Z,0
2016-05-05T04:27:16.250Z,0
2016-05-05T04:28:16.080Z,0
2016-05-05T04:29:16.239Z,0
2016-05-05T04:30:15.913Z,0
2016-05-05T04:31:16.182Z,0
2016-05-05T04:32:16.341Z,0
2016-05-05T04:33:16.312Z,0
2016-05-05T04:34:16.299Z,0
2016-05-05T04:35:16.301Z,0
2016-05-05T04:36:16.118Z,0
2016-05-05T04:37:16.104Z,0
2016-05-05T04:38:16.232Z,0
2016-05-05T04:39:16.923Z,0
2016-05-05T04:40:16.190Z,0
2016-05-05T04:41:16.193Z,0
2016-05-05T04:42:16.181Z,0
2016-05-05T04:43:16.011Z,0
2016-05-05T04:44:16.139Z,0
2016-05-05T04:45:15.829Z,0
2016-05-05T04:46:16.114Z,0
2016-05-05T04:47:15.928Z,0
2016-05-05T04:48:15.758Z,0
2016-05-05T04:49:15.918Z,0
2016-05-05T04:50:16.061Z,0
2016-05-05T04:51:15.877Z,0
2016-05-05T04:52:15.863Z,0
2016-05-05T04:53:16.008Z,0
2016-05-05T04:54:16.010Z,0
2016-05-05T04:55:15.965Z,0
2016-05-05T04:56:15.953Z,0
2016-05-05T04:57:15.939Z,0
2016-05-05T04:58:15.785Z,0
2016-05-05T04:59:15.914Z,0
2016-05-05T05:00:15.744Z,0
2016-05-05T05:01:15.747Z,0
2016-05-05T05:02:15.703Z,0
2016-05-05T05:03:15.830Z,0
2016-05-05T05:04:15.832Z,0
2016-05-05T05:05:15.835Z,0
2016-05-05T05:06:15.652Z,0
2016-05-05T05:07:15.795Z,0
2016-05-05T05:08:15.469Z,0
2016-05-05T05:09:15.768Z,0
2016-05-05T05:10:15.740Z,0
2016-05-05T05:11:15.570Z,0
2016-05-05T05:12:15.730Z,0
2016-05-05T05:13:15.529Z,0
2016-05-05T05:14:15.532Z,0
2016-05-05T05:15:15.676Z,0
2016-05-05T05:16:15.647Z,0
2016-05-05T05:17:15.649Z,0
2016-05-05T05:18:15.620Z,0
2016-05-05T05:19:15.592Z,0
2016-05-05T05:20:15.580Z,0
2016-05-05T05:21:15.583Z,0
2016-05-05T05:22:15.397Z,0
2016-05-05T05:23:15.541Z,0
2016-05-05T05:24:15.872Z,0
2016-05-05T05:25:15.514Z,0
2016-05-05T05:26:15.486Z,0
2016-05-05T05:27:15.457Z,0
2016-05-05T05:28:15.476Z,0
2016-05-05T05:29:15.447Z,0
2016-05-05T05:30:15.435Z,0
2016-05-05T05:31:15.265Z,0
2016-05-05T05:32:15.377Z,0
2016-05-05T05:33:15.380Z,0
2016-05-05T05:34:15.382Z,0
2016-05-05T05:35:15.354Z,0
2016-05-05T05:36:15.341Z,0
2016-05-05T05:37:15.312Z,0
2016-05-05T05:38:15.299Z,0
2016-05-05T05:39:15.177Z,0
2016-05-05T05:40:15.274Z,0
2016-05-05T05:41:15.245Z,0
2016-05-05T05:42:15.248Z,0
2016-05-05T05:43:15.062Z,0
2016-05-05T05:44:15.050Z,0
2016-05-05T05:45:15.209Z,0
2016-05-05T05:46:15.040Z,0
2016-05-05T05:47:15.011Z,0
2016-05-05T05:48:15.155Z,0
2016-05-05T05:49:15.142Z,0
2016-05-05T05:50:14.816Z,0
2016-05-05T05:51:14.944Z,0
2016-05-05T05:52:15.087Z,0
2016-05-05T05:53:15.058Z,0
2016-05-05T05:54:15.967Z,0
2016-05-05T05:55:14.892Z,0
2016-05-05T05:56:15.035Z,0
2016-05-05T05:57:15.022Z,0
2016-05-05T05:58:15.010Z,0
2016-05-05T05:59:14.825Z,0
2016-05-05T06:00:14.968Z,0
2016-05-05T06:01:14.971Z,0
2016-05-05T06:02:14.942Z,5
2016-05-05T06:03:14.757Z,5
2016-05-05T06:04:14.901Z,5
2016-05-05T06:05:14.607Z,5
2016-05-05T06:06:14.891Z,5
2016-05-05T06:07:14.862Z,5
2016-05-05T06:08:14.708Z,5
2016-05-05T06:09:14.507Z,5
2016-05-05T06:10:14.652Z,5
2016-05-05T06:11:14.638Z,10
2016-05-05T06:12:14.812Z,10
2016-05-05T06:13:14.487Z,10
2016-05-05T06:14:14.584Z,10
2016-05-05T06:15:14.586Z,10
2016-05-05T06:16:14.714Z,10
2016-05-05T06:17:14.561Z,15
2016-05-05T06:18:14.391Z,15
2016-05-05T06:19:14.691Z,15
2016-05-05T06:20:14.678Z,15
2016-05-05T06:21:14.650Z,15
2016-05-05T06:22:14.324Z,15
2016-05-05T06:23:14.477Z,15
2016-05-05T06:24:16.121Z,15
2016-05-05T06:25:14.576Z,15
2016-05-05T06:26:14.564Z,10
2016-05-05T06:27:14.535Z,10
2016-05-05T06:28:14.537Z,10
2016-05-05T06:29:14.384Z,10
2016-05-05T06:30:14.496Z,10
2016-05-05T06:31:14.483Z,10
2016-05-05T06:32:14.158Z,10
2016-05-05T06:33:14.457Z,10
2016-05-05T06:34:13.991Z,10
2016-05-05T06:35:14.415Z,10
2016-05-05T06:36:14.403Z,10
2016-05-05T06:37:14.390Z,10
2016-05-05T06:38:14.251Z,10
2016-05-05T06:39:14.708Z,10
2016-05-05T06:40:13.898Z,10
2016-05-05T06:41:14.041Z,10
2016-05-05T06:42:14.326Z,10
2016-05-05T06:43:14.156Z,15
2016-05-05T06:44:14.284Z,15
2016-05-05T06:45:14.114Z,15
2016-05-05T06:46:14.258Z,15
2016-05-05T06:47:14.245Z,15
2016-05-05T06:48:14.232Z,15
2016-05-05T06:49:14.219Z,15
2016-05-05T06:50:14.066Z,15
2016-05-05T06:51:14.193Z,15
2016-05-05T06:52:14.164Z,15
2016-05-05T06:53:13.996Z,15
2016-05-05T06:54:15.624Z,15
2016-05-05T06:55:13.985Z,15
2016-05-05T06:56:14.129Z,15
2016-05-05T06:57:13.803Z,15
2016-05-05T06:58:14.071Z,15
2016-05-05T06:59:13.918Z,15
2016-05-05T07:00:13.904Z,15
2016-05-05T07:01:13.877Z,15
2016-05-05T07:02:13.863Z,15
2016-05-05T07:03:14.023Z,20
2016-05-05T07:04:13.854Z,20
2016-05-05T07:05:13.950Z,20
2016-05-05T07:06:13.968Z,20
2016-05-05T07:07:13.971Z,25
2016-05-05T07:08:13.768Z,25
2016-05-05T07:09:14.164Z,20
2016-05-05T07:10:13.757Z,20
2016-05-05T07:11:13.887Z,20
2016-05-05T07:12:13.700Z,20
2016-05-05T07:13:13.859Z,20
2016-05-05T07:14:13.846Z,20
2016-05-05T07:15:13.834Z,20
2016-05-05T07:16:13.648Z,20
2016-05-05T07:17:13.791Z,20
2016-05-05T07:18:13.607Z,20
2016-05-05T07:19:13.609Z,20
2016-05-05T07:20:13.737Z,20
2016-05-05T07:21:13.724Z,20
2016-05-05T07:22:13.727Z,15
2016-05-05T07:23:13.558Z,15
2016-05-05T07:24:15.219Z,15
2016-05-05T07:25:13.672Z,15
2016-05-05T07:26:13.347Z,20
2016-05-05T07:27:13.663Z,20
2016-05-05T07:28:13.477Z,15
2016-05-05T07:29:13.605Z,15
2016-05-05T07:30:13.593Z,15
2016-05-05T07:31:13.580Z,15
2016-05-05T07:32:13.566Z,15
2016-05-05T07:33:13.554Z,15
2016-05-05T07:34:13.557Z,10
2016-05-05T07:35:13.512Z,10
2016-05-05T07:36:13.499Z,15
2016-05-05T07:37:13.502Z,15
2016-05-05T07:38:13.473Z,15
2016-05-05T07:39:13.585Z,15
2016-05-05T07:40:13.290Z,15
2016-05-05T07:41:13.263Z,20
2016-05-05T07:42:13.406Z,25
2016-05-05T07:43:13.252Z,25
2016-05-05T07:44:13.381Z,25
2016-05-05T07:45:13.367Z,25
2016-05-05T07:46:13.386Z,25
2016-05-05T07:47:13.372Z,30
2016-05-05T07:48:13.047Z,30
2016-05-05T07:49:13.300Z,30
2016-05-05T07:50:13.302Z,35
2016-05-05T07:51:13.275Z,35
2016-05-05T07:52:13.261Z,35
2016-05-05T07:53:13.248Z,35
2016-05-05T07:54:12.782Z,35
2016-05-05T07:55:12.925Z,35
2016-05-05T07:56:13.052Z,30
2016-05-05T07:57:13.040Z,30
2016-05-05T07:58:13.168Z,30
2016-05-05T07:59:13.139Z,25
2016-05-05T08:00:13.158Z,20
2016-05-05T08:01:13.129Z,20
2016-05-05T08:02:13.085Z,20
2016-05-05T08:03:13.102Z,20
2016-05-05T08:04:13.074Z,20
2016-05-05T08:05:12.921Z,20
2016-05-05T08:06:13.049Z,25
2016-05-05T08:07:13.036Z,25
2016-05-05T08:08:13.023Z,25
2016-05-05T08:09:13.009Z,25
2016-05-05T08:10:12.841Z,30
2016-05-05T08:11:12.812Z,30
2016-05-05T08:12:12.659Z,30
2016-05-05T08:13:12.786Z,30
2016-05-05T08:14:12.789Z,30
2016-05-05T08:15:12.901Z,35
2016-05-05T08:16:12.748Z,40
2016-05-05T08:17:12.890Z,40
2016-05-05T08:18:12.705Z,40
2016-05-05T08:19:12.381Z,45
2016-05-05T08:20:12.836Z,50
2016-05-05T08:21:12.667Z,50
2016-05-05T08:22:12.483Z,50
2016-05-05T08:23:12.767Z,50
2016-05-05T08:24:12.784Z,50
2016-05-05T08:25:12.756Z,45
2016-05-05T08:26:12.727Z,45
2016-05-05T08:27:12.746Z,45
2016-05-05T08:28:12.545Z,45
2016-05-05T08:29:12.673Z,40
2016-05-05T08:30:12.691Z,40
2016-05-05T08:31:12.663Z,40
2016-05-05T08:32:12.494Z,40
2016-05-05T08:33:12.480Z,40
2016-05-05T08:34:12.593Z,40
2016-05-05T08:35:12.627Z,40
2016-05-05T08:36:12.582Z,40
2016-05-05T08:37:12.554Z,40
2016-05-05T08:38:12.072Z,40
2016-05-05T08:39:12.762Z,40
2016-05-05T08:40:12.218Z,40
2016-05-05T08:41:12.486Z,35
2016-05-05T08:42:12.739Z,40
2016-05-05T08:43:12.445Z,40
2016-05-05T08:44:12.463Z,45
2016-05-05T08:45:12.419Z,45
2016-05-05T08:46:12.407Z,45
2016-05-05T08:47:12.268Z,45
2016-05-05T08:48:12.223Z,45
2016-05-05T08:49:12.367Z,50
2016-05-05T08:50:12.339Z,55
2016-05-05T08:51:12.014Z,55
2016-05-05T08:52:12.313Z,55
2016-05-05T08:53:12.159Z,60
2016-05-05T08:54:13.647Z,60
2016-05-05T08:55:11.946Z,60
2016-05-05T08:56:12.074Z,60
2016-05-05T08:57:12.077Z,60
2016-05-05T08:58:12.205Z,65
2016-05-05T08:59:12.050Z,65
2016-05-05T09:00:12.021Z,65
2016-05-05T09:01:12.181Z,65
2016-05-05T09:02:11.856Z,65
2016-05-05T09:03:12.138Z,65
2016-05-05T09:04:12.174Z,60
2016-05-05T09:05:11.941Z,60
2016-05-05T09:06:11.944Z,60
2016-05-05T09:07:12.071Z,60
2016-05-05T09:08:11.887Z,55
2016-05-05T09:09:11.890Z,55
2016-05-05T09:10:11.862Z,50
2016-05-05T09:11:11.832Z,50
2016-05-05T09:12:11.976Z,50
2016-05-05T09:13:11.807Z,50
2016-05-05T09:14:11.638Z,50
2016-05-05T09:15:11.968Z,45
2016-05-05T09:16:11.909Z,45
2016-05-05T09:17:11.881Z,45
2016-05-05T09:18:11.571Z,40
2016-05-05T09:19:11.869Z,40
2016-05-05T09:20:11.857Z,40
2016-05-05T09:21:11.828Z,40
2016-05-05T09:22:11.847Z,35
2016-05-05T09:23:11.928Z,40
2016-05-05T09:24:11.524Z,40
2016-05-05T09:25:11.808Z,40
2016-05-05T09:26:11.919Z,35
2016-05-05T09:27:11.798Z,35
2016-05-05T09:28:12.238Z,35
2016-05-05T09:29:11.678Z,40
2016-05-05T09:30:11.885Z,40
2016-05-05T09:31:11.706Z,40
2016-05-05T09:32:11.678Z,40
2016-05-05T09:33:12.259Z,40
2016-05-05T09:34:11.606Z,40
2016-05-05T09:35:11.436Z,40
2016-05-05T09:36:11.580Z,45
2016-05-05T09:37:11.567Z,45
2016-05-05T09:38:11.397Z,45
2016-05-05T09:39:11.681Z,50
2016-05-05T09:40:11.372Z,50
2016-05-05T09:41:11.343Z,55
2016-05-05T09:42:11.502Z,60
2016-05-05T09:43:11.531Z,60
2016-05-05T09:44:11.393Z,65
2016-05-05T09:45:11.473Z,65
2016-05-05T09:46:11.116Z,70
2016-05-05T09:47:11.948Z,70
2016-05-05T09:48:12.356Z,70
2016-05-05T09:49:11.203Z,70
2016-05-05T09:50:11.487Z,75
2016-05-05T09:51:11.364Z,75
2016-05-05T09:52:11.367Z,75
2016-05-05T09:53:11.354Z,75
2016-05-05T09:54:11.888Z,75
2016-05-05T09:55:11.109Z,70
2016-05-05T09:56:11.097Z,65
2016-05-05T09:57:11.114Z,60
2016-05-05T09:58:11.211Z,55
2016-05-05T09:59:11.183Z,55
2016-05-05T10:00:11.216Z,55
2016-05-05T10:01:10.688Z,55
2016-05-05T10:02:11.160Z,50
2016-05-05T10:03:11.130Z,50
2016-05-05T10:04:11.118Z,50
2016-05-05T10:05:11.089Z,50
2016-05-05T10:06:11.076Z,55
2016-05-05T10:07:11.063Z,55
2016-05-05T10:08:10.910Z,55
2016-05-05T10:09:10.881Z,60
2016-05-05T10:10:11.556Z,60
2016-05-05T10:11:11.121Z,65
2016-05-05T10:12:10.998Z,60
2016-05-05T10:13:10.815Z,60
2016-05-05T10:14:10.942Z,60
2016-05-05T10:15:10.772Z,55
2016-05-05T10:16:10.995Z,50
2016-05-05T10:17:10.950Z,50
2016-05-05T10:18:10.874Z,50
2016-05-05T10:19:10.987Z,50
2016-05-05T10:20:10.723Z,55
2016-05-05T10:21:10.835Z,55
2016-05-05T10:22:10.667Z,60
2016-05-05T10:23:10.528Z,65
2016-05-05T10:24:10.797Z,65
2016-05-05T10:25:10.986Z,65
2016-05-05T10:26:10.755Z,70
2016-05-05T10:27:11.180Z,70
2016-05-05T10:28:11.073Z,70
2016-05-05T10:29:10.700Z,75
2016-05-05T10:30:10.688Z,75
2016-05-05T10:31:10.705Z,80
2016-05-05T10:32:10.677Z,85
2016-05-05T10:33:10.634Z,85
2016-05-05T10:34:10.496Z,85
2016-05-05T10:35:10.624Z,75
2016-05-05T10:36:10.626Z,70
2016-05-05T10:37:10.566Z,60
2016-05-05T10:38:10.397Z,55
2016-05-05T10:39:10.462Z,50
2016-05-05T10:40:12.262Z,60
2016-05-05T10:41:10.498Z,65
2016-05-05T10:42:10.345Z,70
2016-05-05T10:43:10.473Z,75
2016-05-05T10:44:10.491Z,80
2016-05-05T10:45:10.181Z,80
2016-05-05T10:46:10.481Z,80
2016-05-05T10:47:10.343Z,85
2016-05-05T10:48:10.377Z,85
2016-05-05T10:49:10.301Z,90
2016-05-05T10:50:10.351Z,85
2016-05-05T10:51:10.447Z,80
2016-05-05T10:52:09.981Z,70
2016-05-05T10:53:10.297Z,70
2016-05-05T10:54:10.486Z,80
2016-05-05T10:55:09.989Z,85
2016-05-05T10:56:10.711Z,85
2016-05-05T10:57:10.276Z,85
2016-05-05T10:58:10.200Z,95
2016-05-05T10:59:10.220Z,95
2016-05-05T11:00:10.109Z,90
2016-05-05T11:01:10.265Z,85
2016-05-05T11:02:10.484Z,80
2016-05-05T11:03:10.608Z,75
2016-05-05T11:04:10.337Z,80
2016-05-05T11:05:10.340Z,85
2016-05-05T11:06:10.186Z,85
2016-05-05T11:07:10.346Z,75
2016-05-05T11:08:10.052Z,75
2016-05-05T11:09:10.173Z,70
2016-05-05T11:10:11.337Z,65
2016-05-05T11:11:10.142Z,60
2016-05-05T11:12:10.306Z,60
2016-05-05T11:13:10.158Z,65
2016-05-05T11:14:10.132Z,75
2016-05-05T11:15:10.277Z,80
2016-05-05T11:16:10.313Z,100
2016-05-05T11:17:10.224Z,115
2016-05-05T11:18:10.056Z,120
2016-05-05T11:19:10.217Z,130
2016-05-05T11:20:10.173Z,135
2016-05-05T11:21:10.020Z,135
2016-05-05T11:22:09.993Z,140
2016-05-05T11:23:10.173Z,145
2016-05-05T11:24:10.090Z,145
2016-05-05T11:25:10.546Z,150
2016-05-05T11:26:09.908Z,150
2016-05-05T11:27:10.052Z,150
2016-05-05T11:28:09.774Z,150
2016-05-05T11:29:09.870Z,150
2016-05-05T11:30:10.030Z,150
2016-05-05T11:31:09.860Z,150
2016-05-05T11:32:09.817Z,145
2016-05-05T11:33:09.961Z,140
2016-05-05T11:34:09.791Z,135
2016-05-05T11:35:09.933Z,135
2016-05-05T11:36:09.921Z,135
2016-05-05T11:37:09.908Z,135
2016-05-05T11:38:09.879Z,135
2016-05-05T11:39:09.882Z,130
2016-05-05T11:40:11.183Z,130
2016-05-05T11:41:09.716Z,135
2016-05-05T11:42:09.813Z,140
2016-05-05T11:43:09.799Z,140
2016-05-05T11:44:09.474Z,150
2016-05-05T11:45:09.601Z,155
2016-05-05T11:46:09.621Z,140
2016-05-05T11:47:09.732Z,125
2016-05-05T11:48:09.704Z,100
2016-05-05T11:49:09.737Z,95
2016-05-05T11:50:09.521Z,100
2016-05-05T11:51:09.696Z,105
2016-05-05T11:52:09.651Z,125
2016-05-05T11:53:09.654Z,145
2016-05-05T11:54:09.642Z,155
2016-05-05T11:55:09.613Z,160
2016-05-05T11:56:09.616Z,145
2016-05-05T11:57:09.415Z,130
2016-05-05T11:58:09.403Z,130
2016-05-05T11:59:09.545Z,135
2016-05-05T12:00:09.220Z,120
2016-05-05T12:01:09.378Z,110
2016-05-05T12:02:09.381Z,90
2016-05-05T12:03:09.478Z,75
2016-05-05T12:04:09.450Z,75
2016-05-05T12:05:09.281Z,80
2016-05-05T12:06:09.439Z,95
2016-05-05T12:07:09.411Z,110
2016-05-05T12:08:09.397Z,110
2016-05-05T12:09:09.213Z,100
2016-05-05T12:10:10.106Z,105
2016-05-05T12:11:09.219Z,125
2016-05-05T12:12:09.330Z,135
2016-05-05T12:13:09.333Z,140
2016-05-05T12:14:09.148Z,140
2016-05-05T12:15:09.291Z,145
2016-05-05T12:16:08.934Z,160
2016-05-05T12:17:09.250Z,175
2016-05-05T12:18:09.082Z,180
2016-05-05T12:19:08.927Z,175
2016-05-05T12:20:09.227Z,175
2016-05-05T12:21:09.276Z,165
2016-05-05T12:22:09.685Z,150
2016-05-05T12:23:09.172Z,130
2016-05-05T12:24:09.143Z,120
2016-05-05T12:25:08.851Z,110
2016-05-05T12:26:08.868Z,100
2016-05-05T12:27:12.074Z,90
2016-05-05T12:28:09.139Z,85
2016-05-05T12:29:08.892Z,85
2016-05-05T12:30:09.050Z,85
2016-05-05T12:31:09.085Z,100
2016-05-05T12:32:08.994Z,105
2016-05-05T12:33:08.683Z,100
2016-05-05T12:34:09.014Z,95
2016-05-05T12:35:08.970Z,85
2016-05-05T12:36:08.785Z,80
2016-05-05T12:37:08.788Z,70
2016-05-05T12:38:09.166Z,70
2016-05-05T12:39:08.903Z,70
2016-05-05T12:40:10.093Z,75
2016-05-05T12:41:08.877Z,75
2016-05-05T12:42:08.724Z,80
2016-05-05T12:43:08.694Z,85
2016-05-05T12:44:08.822Z,90
2016-05-05T12:45:08.825Z,95
2016-05-05T12:46:08.797Z,95
2016-05-05T12:47:08.830Z,100
2016-05-05T12:48:08.615Z,100
2016-05-05T12:49:08.758Z,110
2016-05-05T12:50:08.276Z,115
2016-05-05T12:51:08.763Z,120
2016-05-05T12:52:08.578Z,135
2016-05-05T12:53:08.706Z,145
2016-05-05T12:54:08.756Z,150
2016-05-05T12:55:09.009Z,170
2016-05-05T12:56:11.434Z,190
2016-05-05T12:57:08.295Z,200
2016-05-05T12:58:08.594Z,220
2016-05-05T12:59:08.597Z,225
2016-05-05T13:00:08.273Z,225
2016-05-05T13:01:08.384Z,210
2016-05-05T13:02:08.528Z,200
2016-05-05T13:03:08.498Z,200
2016-05-05T13:04:10.142Z,205
2016-05-05T13:05:08.192Z,210
2016-05-05T13:06:08.335Z,215
2016-05-05T13:07:08.306Z,220
2016-05-05T13:08:08.278Z,230
2016-05-05T13:09:08.281Z,250
2016-05-05T13:10:08.252Z,275
2016-05-05T13:11:08.364Z,300
2016-05-05T13:12:08.242Z,320
2016-05-05T13:13:08.354Z,320
2016-05-05T13:14:08.341Z,335
2016-05-05T13:15:08.405Z,310
2016-05-05T13:16:08.330Z,280
2016-05-05T13:17:08.349Z,260
2016-05-05T13:18:08.289Z,235
2016-05-05T13:19:08.260Z,210
2016-05-05T13:20:08.263Z,190
2016-05-05T13:21:08.360Z,175
2016-05-05T13:22:08.300Z,160
2016-05-05T13:23:08.193Z,150
2016-05-05T13:24:08.196Z,155
2016-05-05T13:25:08.058Z,150
2016-05-05T13:26:08.154Z,170
2016-05-05T13:27:08.173Z,195
2016-05-05T13:28:08.113Z,185
2016-05-05T13:29:08.131Z,190
2016-05-05T13:30:07.962Z,180
2016-05-05T13:31:08.106Z,160
2016-05-05T13:32:07.920Z,145
2016-05-05T13:33:07.908Z,140
2016-05-05T13:34:08.051Z,160
2016-05-05T13:35:08.023Z,175
2016-05-05T13:36:08.025Z,180
2016-05-05T13:37:26.511Z,170
2016-05-05T13:38:24.281Z,165
2016-05-05T13:39:08.127Z,160
2016-05-05T13:40:08.005Z,160
2016-05-05T13:41:07.930Z,160
2016-05-05T13:42:07.916Z,165
2016-05-05T13:43:07.903Z,175
2016-05-05T13:44:07.906Z,185
2016-05-05T13:45:07.721Z,205
2016-05-05T13:46:07.724Z,215
2016-05-05T13:47:07.852Z,225
2016-05-05T13:48:07.699Z,215
2016-05-05T13:49:07.810Z,210
2016-05-05T13:50:07.640Z,205
2016-05-05T13:51:07.800Z,195
2016-05-05T13:52:07.459Z,180
2016-05-05T13:53:07.727Z,175
2016-05-05T13:54:07.590Z,160
2016-05-05T13:55:07.873Z,160
2016-05-05T13:56:07.579Z,150
2016-05-05T13:57:07.566Z,135
2016-05-05T13:58:07.662Z,125
2016-05-05T13:59:07.493Z,115
2016-05-05T14:00:07.652Z,120
2016-05-05T14:01:07.639Z,115
2016-05-05T14:02:07.454Z,115
2016-05-05T14:03:07.284Z,120
2016-05-05T14:04:07.584Z,125
2016-05-05T14:05:07.400Z,130
2016-05-05T14:06:07.559Z,135
2016-05-05T14:07:07.530Z,140
2016-05-05T14:08:07.533Z,135
2016-05-05T14:09:07.364Z,125
2016-05-05T14:10:07.773Z,125
2016-05-05T14:11:07.322Z,125
2016-05-05T14:12:07.294Z,125
2016-05-05T14:13:07.453Z,125
2016-05-05T14:14:07.300Z,125
2016-05-05T14:15:07.302Z,125
2016-05-05T14:16:07.399Z,125
2016-05-05T14:17:07.072Z,125
2016-05-05T14:18:07.201Z,120
2016-05-05T14:19:07.218Z,120
2016-05-05T14:20:07.049Z,125
2016-05-05T14:21:07.319Z,130
2016-05-05T14:22:07.149Z,135